Time;durP1;ratioP1;P1;durP2;ratioP2;P2;SDS_P1;SDS_P2;PMS_P1;PMS_P2;Temp;Humidity;BMP_temperature;BMP_pressure;BME280_temperature;BME280_humidity;BME280_pressure;Samples;Min_cycle;Max_cycle;Signal;HPM_P1;HPM_P2
2022/11/24 00:01:31;;;;;;;0.20;0.10;;;;;;;;;;4147232;28;20058;-42
2022/11/24 00:03:33;;;;;;;0.17;0.10;;;;;;;;;;4147452;28;20112;-42
2022/11/24 00:05:37;;;;;;;0.17;0.10;;;;;;;;;;4146865;28;20054;-42
2022/11/24 00:07:38;;;;;;;0.28;0.10;;;;;;;;;;4147088;28;20389;-42
2022/11/24 00:09:39;;;;;;;0.10;0.10;;;;;;;;;;4132449;28;20108;-42
2022/11/24 00:11:41;;;;;;;0.60;0.20;;;;;;;;;;4135438;28;20081;-43
2022/11/24 00:13:43;;;;;;;0.10;0.10;;;;;;;;;;4138295;28;20054;-42
2022/11/24 00:15:44;;;;;;;0.20;0.10;;;;;;;;;;4141617;28;20059;-41
2022/11/24 00:17:45;;;;;;;0.20;0.10;;;;;;;;;;4133494;28;20380;-42
2022/11/24 00:19:47;;;;;;;0.63;0.10;;;;;;;;;;4146793;28;20053;-43
2022/11/24 00:21:48;;;;;;;0.25;0.10;;;;;;;;;;4145899;28;20112;-41
2022/11/24 00:23:50;;;;;;;0.50;0.20;;;;;;;;;;4129847;28;20050;-43
2022/11/24 00:25:52;;;;;;;0.10;0.10;;;;;;;;;;4133922;28;20062;-43
2022/11/24 00:27:53;;;;;;;0.20;0.10;;;;;;;;;;4146660;28;20070;-41
2022/11/24 00:29:54;;;;;;;0.30;0.20;;;;;;;;;;4129682;28;20054;-43
2022/11/24 00:31:56;;;;;;;0.38;0.38;;;;;;;;;;4129453;28;20065;-43
2022/11/24 00:34:00;;;;;;;0.20;0.20;;;;;;;;;;4146881;28;20045;-41
2022/11/24 00:36:01;;;;;;;0.10;0.10;;;;;;;;;;4146054;28;20068;-41
2022/11/24 00:38:02;;;;;;;0.10;0.10;;;;;;;;;;4146948;28;20172;-42
2022/11/24 00:40:04;;;;;;;0.32;0.20;;;;;;;;;;4145388;28;20104;-41
2022/11/24 00:42:05;;;;;;;0.17;0.17;;;;;;;;;;4147046;28;20050;-43
2022/11/24 00:44:07;;;;;;;0.40;0.30;;;;;;;;;;4145235;28;20056;-42
2022/11/24 00:46:08;;;;;;;0.10;0.10;;;;;;;;;;4130711;28;20434;-42
2022/11/24 00:48:10;;;;;;;0.38;0.20;;;;;;;;;;4134523;28;20433;-42
2022/11/24 00:50:11;;;;;;;0.57;0.20;;;;;;;;;;4127148;28;20066;-42
2022/11/24 00:52:12;;;;;;;0.15;0.10;;;;;;;;;;4139692;28;20065;-42
2022/11/24 00:54:14;;;;;;;0.57;0.20;;;;;;;;;;4134237;28;20109;-41
2022/11/24 00:56:16;;;;;;;0.28;0.20;;;;;;;;;;4145462;28;20128;-41
2022/11/24 00:58:17;;;;;;;0.45;0.10;;;;;;;;;;4141335;28;20105;-43
2022/11/24 01:00:18;;;;;;;0.10;0.10;;;;;;;;;;4130124;28;20054;-41
2022/11/24 01:02:20;;;;;;;0.20;0.20;;;;;;;;;;4124348;28;20062;-41
2022/11/24 01:04:22;;;;;;;0.10;0.10;;;;;;;;;;4144167;28;20050;-42
2022/11/24 01:06:25;;;;;;;0.20;0.20;;;;;;;;;;4145258;28;20409;-42
2022/11/24 01:08:26;;;;;;;0.40;0.20;;;;;;;;;;4129028;28;20054;-42
2022/11/24 01:10:27;;;;;;;0.17;0.10;;;;;;;;;;4128803;28;20070;-42
2022/11/24 01:12:28;;;;;;;0.10;0.10;;;;;;;;;;4133000;28;20061;-41
2022/11/24 01:14:31;;;;;;;0.25;0.10;;;;;;;;;;4146554;28;20053;-42
2022/11/24 01:16:33;;;;;;;0.05;0.05;;;;;;;;;;4139742;28;20101;-42
2022/11/24 01:18:35;;;;;;;0.30;0.20;;;;;;;;;;4155175;28;20061;-43
2022/11/24 01:20:36;;;;;;;0.28;0.10;;;;;;;;;;4133077;28;20490;-42
2022/11/24 01:22:38;;;;;;;0.30;0.30;;;;;;;;;;4143452;28;20113;-42
2022/11/24 01:24:39;;;;;;;0.20;0.20;;;;;;;;;;4112946;28;20228;-42
2022/11/24 01:26:41;;;;;;;0.40;0.30;;;;;;;;;;4139306;28;20058;-42
2022/11/24 01:28:43;;;;;;;0.13;0.13;;;;;;;;;;4146050;28;20058;-42
2022/11/24 01:30:46;;;;;;;0.10;0.10;;;;;;;;;;4146466;28;20054;-42
2022/11/24 01:32:47;;;;;;;0.20;0.20;;;;;;;;;;4146252;28;20073;-41
2022/11/24 01:34:48;;;;;;;0.10;0.10;;;;;;;;;;4145844;28;20050;-41
2022/11/24 01:36:50;;;;;;;0.15;0.15;;;;;;;;;;4144687;28;20261;-42
2022/11/24 01:38:51;;;;;;;0.35;0.17;;;;;;;;;;4142790;28;20474;-42
2022/11/24 01:41:25;;;;;;;0.20;0.13;;;;;;;;;;4130103;28;20426;-43
2022/11/24 01:43:26;;;;;;;0.68;0.20;;;;;;;;;;4122002;28;20101;-41
2022/11/24 01:45:39;;;;;;;0.10;0.10;;;;;;;;;;4133721;28;20053;-41
2022/11/24 01:47:40;;;;;;;0.10;0.10;;;;;;;;;;4120622;28;20054;-44
2022/11/24 01:49:47;;;;;;;0.10;0.10;;;;;;;;;;4112251;28;20110;-41
2022/11/24 01:52:05;;;;;;;0.10;0.10;;;;;;;;;;4144932;28;20058;-42
2022/11/24 01:54:17;;;;;;;0.30;0.30;;;;;;;;;;4146173;28;20053;-43
2022/11/24 01:56:18;;;;;;;0.52;0.20;;;;;;;;;;4144872;28;20050;-44
2022/11/24 01:58:25;;;;;;;0.32;0.20;;;;;;;;;;4144299;28;20108;-42
2022/11/24 02:00:27;;;;;;;0.10;0.10;;;;;;;;;;4102141;28;20062;-41
2022/11/24 02:02:28;;;;;;;0.73;0.20;;;;;;;;;;4128689;28;20473;-42
2022/11/24 02:04:32;;;;;;;0.10;0.10;;;;;;;;;;4145662;28;20065;-43
2022/11/24 02:06:34;;;;;;;0.10;0.10;;;;;;;;;;4145979;28;20062;-42
2022/11/24 02:08:54;;;;;;;0.47;0.20;;;;;;;;;;4128784;28;20069;-41
2022/11/24 02:10:56;;;;;;;0.20;0.20;;;;;;;;;;4145930;28;20139;-43
2022/11/24 02:12:59;;;;;;;0.17;0.10;;;;;;;;;;4131289;28;20054;-41
2022/11/24 02:15:00;;;;;;;0.20;0.20;;;;;;;;;;4131715;28;20054;-42
2022/11/24 02:17:02;;;;;;;0.20;0.10;;;;;;;;;;4147920;28;20112;-41
2022/11/24 02:19:11;;;;;;;0.15;0.15;;;;;;;;;;4147930;28;20517;-42
2022/11/24 02:21:14;;;;;;;;;;;;;;;;;;4118092;28;20059;-41
2022/11/24 02:23:24;;;;;;;0.20;0.15;;;;;;;;;;4126476;28;19922;-41
2022/11/24 02:25:42;;;;;;;0.10;0.10;;;;;;;;;;4157034;28;20107;-41
2022/11/24 02:27:44;;;;;;;0.47;0.20;;;;;;;;;;4148508;28;20405;-42
2022/11/24 02:29:46;;;;;;;0.20;0.20;;;;;;;;;;4144225;28;20050;-41
2022/11/24 02:31:52;;;;;;;0.30;0.30;;;;;;;;;;4140519;28;20050;-42
2022/11/24 02:33:54;;;;;;;0.10;0.10;;;;;;;;;;4119888;28;20059;-41
2022/11/24 02:35:55;;;;;;;0.20;0.20;;;;;;;;;;4146092;28;20057;-42
2022/11/24 02:37:57;;;;;;;0.10;0.10;;;;;;;;;;4144571;28;20069;-41
2022/11/24 02:39:58;;;;;;;0.20;0.20;;;;;;;;;;4140032;28;20057;-41
2022/11/24 02:42:02;;;;;;;0.20;0.20;;;;;;;;;;4148638;28;20050;-41
2022/11/24 02:44:04;;;;;;;0.68;0.20;;;;;;;;;;4114817;28;20054;-42
2022/11/24 02:46:05;;;;;;;0.65;0.20;;;;;;;;;;4132397;28;20066;-42
2022/11/24 02:48:07;;;;;;;0.10;0.10;;;;;;;;;;4115144;28;20078;-42
2022/11/24 02:50:10;;;;;;;0.20;0.10;;;;;;;;;;4137727;28;20065;-42
2022/11/24 02:52:11;;;;;;;0.13;0.13;;;;;;;;;;4148474;28;20413;-41
2022/11/24 02:54:12;;;;;;;0.38;0.22;;;;;;;;;;4130919;28;20077;-42
2022/11/24 02:56:14;;;;;;;0.17;0.10;;;;;;;;;;4117397;28;20414;-41
2022/11/24 02:58:15;;;;;;;0.10;0.10;;;;;;;;;;4148525;28;20049;-42
2022/11/24 03:00:17;;;;;;;0.20;0.20;;;;;;;;;;4147136;28;20486;-42
2022/11/24 03:02:18;;;;;;;0.30;0.20;;;;;;;;;;4148417;28;20050;-42
2022/11/24 03:04:20;;;;;;;0.20;0.20;;;;;;;;;;4147407;28;20108;-42
2022/11/24 03:06:21;;;;;;;0.17;0.10;;;;;;;;;;4129765;28;20092;-41
2022/11/24 03:08:22;;;;;;;0.10;0.10;;;;;;;;;;4148240;28;20054;-41
2022/11/24 03:10:24;;;;;;;0.10;0.10;;;;;;;;;;4148119;28;20465;-41
2022/11/24 03:12:26;;;;;;;0.20;0.10;;;;;;;;;;4130737;28;20050;-42
2022/11/24 03:14:27;;;;;;;0.17;0.17;;;;;;;;;;4130774;28;20050;-41
2022/11/24 03:16:28;;;;;;;0.30;0.30;;;;;;;;;;4148095;28;20065;-42
2022/11/24 03:18:30;;;;;;;0.20;0.10;;;;;;;;;;4148096;28;20053;-41
2022/11/24 03:20:31;;;;;;;0.20;0.20;;;;;;;;;;4147543;28;20074;-41
2022/11/24 03:22:33;;;;;;;0.17;0.17;;;;;;;;;;4145114;28;20065;-43
2022/11/24 03:24:34;;;;;;;0.20;0.20;;;;;;;;;;4136949;28;20433;-41
2022/11/24 03:26:35;;;;;;;0.10;0.10;;;;;;;;;;4148181;28;20104;-42
2022/11/24 03:28:37;;;;;;;0.17;0.10;;;;;;;;;;4130313;28;20065;-42
2022/11/24 03:30:38;;;;;;;0.38;0.20;;;;;;;;;;4144472;28;20054;-41
2022/11/24 03:32:40;;;;;;;0.10;0.10;;;;;;;;;;4138153;28;20058;-41
2022/11/24 03:34:42;;;;;;;0.22;0.20;;;;;;;;;;4137471;28;20050;-44
2022/11/24 03:36:43;;;;;;;0.30;0.20;;;;;;;;;;4131727;28;20105;-42
2022/11/24 03:38:44;;;;;;;0.57;0.22;;;;;;;;;;4144655;28;20053;-41
2022/11/24 03:40:45;;;;;;;0.20;0.10;;;;;;;;;;4131595;28;20050;-43
2022/11/24 03:42:47;;;;;;;0.10;0.10;;;;;;;;;;4140328;28;20053;-41
2022/11/24 03:44:49;;;;;;;0.25;0.20;;;;;;;;;;4130428;28;20101;-42
2022/11/24 03:46:50;;;;;;;0.10;0.10;;;;;;;;;;4146552;28;20100;-41
2022/11/24 03:48:52;;;;;;;0.40;0.20;;;;;;;;;;4147698;28;20571;-43
2022/11/24 03:50:58;;;;;;;0.20;0.10;;;;;;;;;;4147080;28;20085;-42
2022/11/24 03:52:59;;;;;;;0.28;0.20;;;;;;;;;;4114272;28;20050;-41
2022/11/24 03:55:00;;;;;;;0.30;0.10;;;;;;;;;;4132517;28;20054;-42
2022/11/24 03:57:01;;;;;;;0.20;0.10;;;;;;;;;;4131408;28;20062;-42
2022/11/24 03:59:03;;;;;;;0.40;0.20;;;;;;;;;;4131320;28;20069;-41
2022/11/24 04:01:04;;;;;;;0.10;0.10;;;;;;;;;;4141717;28;20057;-41
2022/11/24 04:03:05;;;;;;;0.10;0.10;;;;;;;;;;4146983;28;20077;-41
2022/11/24 04:05:08;;;;;;;0.20;0.10;;;;;;;;;;4143313;28;20457;-41
2022/11/24 04:07:10;;;;;;;0.30;0.20;;;;;;;;;;4122469;28;20085;-41
2022/11/24 04:09:11;;;;;;;0.20;0.20;;;;;;;;;;4141089;28;20058;-41
2022/11/24 04:12:42;;;;;;;0.10;0.10;;;;;;;;;;4133738;28;20057;-41
2022/11/24 04:13:34;;;;;;;0.20;0.20;;;;;;;;;;4131009;28;20104;-41
2022/11/24 04:15:37;;;;;;;0.10;0.10;;;;;;;;;;4121997;28;20462;-41
2022/11/24 04:17:38;;;;;;;0.10;0.10;;;;;;;;;;4135164;28;20070;-41
2022/11/24 04:19:40;;;;;;;0.60;0.15;;;;;;;;;;4143663;28;20402;-42
2022/11/24 04:21:41;;;;;;;0.15;0.13;;;;;;;;;;4129657;28;20058;-42
2022/11/24 04:23:43;;;;;;;0.10;0.10;;;;;;;;;;4121515;28;20055;-42
2022/11/24 04:25:44;;;;;;;0.52;0.20;;;;;;;;;;4146854;28;20335;-42
2022/11/24 04:27:50;;;;;;;0.38;0.28;;;;;;;;;;4132720;28;20054;-41
2022/11/24 04:29:52;;;;;;;0.30;0.20;;;;;;;;;;4130727;28;20564;-41
2022/11/24 04:31:54;;;;;;;0.40;0.28;;;;;;;;;;4138361;28;20115;-42
2022/11/24 04:33:55;;;;;;;0.47;0.20;;;;;;;;;;4146409;28;20429;-41
2022/11/24 04:35:57;;;;;;;0.30;0.20;;;;;;;;;;4146211;28;20441;-42
2022/11/24 04:38:01;;;;;;;0.10;0.10;;;;;;;;;;4129473;28;20058;-41
2022/11/24 04:40:04;;;;;;;0.13;0.13;;;;;;;;;;4130517;28;20054;-42
2022/11/24 04:42:06;;;;;;;0.20;0.20;;;;;;;;;;4130726;28;20065;-41
2022/11/24 04:44:08;;;;;;;0.50;0.20;;;;;;;;;;4142258;28;20054;-41
2022/11/24 04:46:10;;;;;;;0.15;0.10;;;;;;;;;;4113337;28;20059;-44
2022/11/24 04:48:11;;;;;;;0.45;0.30;;;;;;;;;;4133494;28;20438;-41
2022/11/24 04:50:13;;;;;;;0.35;0.20;;;;;;;;;;4136598;28;20050;-41
2022/11/24 04:52:16;;;;;;;0.43;0.20;;;;;;;;;;4161774;28;20480;-41
2022/11/24 04:54:17;;;;;;;0.20;0.15;;;;;;;;;;4146939;28;20050;-42
2022/11/24 04:56:19;;;;;;;0.10;0.10;;;;;;;;;;4150686;28;20057;-42
2022/11/24 04:58:20;;;;;;;0.75;0.30;;;;;;;;;;4141224;28;20205;-42
2022/11/24 05:00:22;;;;;;;0.45;0.30;;;;;;;;;;4130631;28;20117;-42
2022/11/24 05:02:24;;;;;;;0.43;0.13;;;;;;;;;;4130425;28;20101;-43
2022/11/24 05:04:26;;;;;;;0.25;0.20;;;;;;;;;;4111223;28;20058;-42
2022/11/24 05:06:27;;;;;;;0.20;0.20;;;;;;;;;;4112897;28;20568;-41
2022/11/24 05:08:28;;;;;;;0.10;0.10;;;;;;;;;;4129316;28;20065;-43
2022/11/24 05:10:34;;;;;;;0.20;0.20;;;;;;;;;;4129152;28;20513;-42
2022/11/24 05:12:35;;;;;;;0.60;0.20;;;;;;;;;;4128961;28;20145;-45
2022/11/24 05:14:37;;;;;;;0.30;0.20;;;;;;;;;;4128795;28;20520;-43
2022/11/24 05:16:39;;;;;;;0.20;0.20;;;;;;;;;;4137953;28;20493;-42
2022/11/24 05:18:40;;;;;;;0.20;0.15;;;;;;;;;;4145192;28;20116;-43
2022/11/24 05:20:45;;;;;;;0.20;0.20;;;;;;;;;;4114632;28;20066;-42
2022/11/24 05:22:46;;;;;;;0.75;0.30;;;;;;;;;;4134271;28;20552;-42
2022/11/24 05:24:48;;;;;;;0.10;0.10;;;;;;;;;;4146226;28;20383;-42
2022/11/24 05:26:49;;;;;;;0.20;0.20;;;;;;;;;;4146420;28;20189;-42
2022/11/24 05:28:51;;;;;;;0.20;0.15;;;;;;;;;;4128744;28;20061;-42
2022/11/24 05:31:01;;;;;;;0.20;0.20;;;;;;;;;;4129154;28;20058;-42
2022/11/24 05:33:17;;;;;;;0.20;0.20;;;;;;;;;;4135414;28;20402;-42
2022/11/24 05:35:20;;;;;;;0.32;0.22;;;;;;;;;;4112220;28;20059;-42
2022/11/24 05:37:21;;;;;;;0.65;0.20;;;;;;;;;;4149984;28;20088;-42
2022/11/24 05:39:23;;;;;;;0.20;0.20;;;;;;;;;;4138377;28;20058;-42
2022/11/24 05:41:24;;;;;;;0.20;0.20;;;;;;;;;;4140983;28;20053;-41
2022/11/24 05:43:25;;;;;;;0.10;0.10;;;;;;;;;;4132827;28;20101;-42
2022/11/24 05:45:27;;;;;;;0.13;0.13;;;;;;;;;;4147128;28;20523;-42
2022/11/24 05:47:28;;;;;;;0.32;0.20;;;;;;;;;;4142513;28;20457;-42
2022/11/24 05:49:30;;;;;;;0.28;0.10;;;;;;;;;;4125682;28;20058;-42
2022/11/24 05:51:32;;;;;;;0.40;0.40;;;;;;;;;;4146359;28;20057;-42
2022/11/24 05:53:34;;;;;;;0.20;0.20;;;;;;;;;;4133224;28;20054;-42
2022/11/24 05:55:35;;;;;;;0.10;0.10;;;;;;;;;;4139243;28;20054;-42
2022/11/24 05:57:37;;;;;;;0.40;0.35;;;;;;;;;;4140722;28;20112;-41
2022/11/24 05:59:38;;;;;;;0.32;0.30;;;;;;;;;;4145413;28;20081;-42
2022/11/24 06:01:40;;;;;;;0.40;0.20;;;;;;;;;;4161753;28;20060;-42
2022/11/24 06:03:41;;;;;;;0.20;0.20;;;;;;;;;;4147525;28;20107;-42
2022/11/24 06:05:45;;;;;;;0.57;0.32;;;;;;;;;;4153680;28;20058;-42
2022/11/24 06:07:47;;;;;;;0.30;0.30;;;;;;;;;;4131426;28;20406;-42
2022/11/24 06:09:48;;;;;;;0.52;0.40;;;;;;;;;;4132290;28;20054;-42
2022/11/24 06:11:50;;;;;;;0.47;0.30;;;;;;;;;;4141541;28;20057;-42
2022/11/24 06:13:51;;;;;;;0.88;0.50;;;;;;;;;;4138206;28;20063;-42
2022/11/24 06:15:52;;;;;;;0.22;0.22;;;;;;;;;;4147296;28;20398;-42
2022/11/24 06:17:55;;;;;;;0.30;0.30;;;;;;;;;;4144765;28;20108;-42
2022/11/24 06:19:56;;;;;;;0.30;0.28;;;;;;;;;;4114249;28;20109;-44
2022/11/24 06:21:57;;;;;;;0.30;0.30;;;;;;;;;;4116145;28;20462;-41
2022/11/24 06:23:59;;;;;;;0.60;0.45;;;;;;;;;;4157249;28;20107;-42
2022/11/24 06:26:00;;;;;;;0.95;0.68;;;;;;;;;;4144857;28;20571;-42
2022/11/24 06:28:03;;;;;;;0.30;0.30;;;;;;;;;;4146975;28;20084;-43
2022/11/24 06:30:05;;;;;;;1.13;0.55;;;;;;;;;;4129508;28;20497;-44
2022/11/24 06:32:06;;;;;;;2.08;0.40;;;;;;;;;;4129383;28;20061;-42
2022/11/24 06:34:10;;;;;;;0.25;0.25;;;;;;;;;;4146930;28;20050;-42
2022/11/24 06:36:13;;;;;;;0.50;0.40;;;;;;;;;;4145672;28;20066;-43
2022/11/24 06:38:15;;;;;;;1.55;0.40;;;;;;;;;;4140981;28;20050;-42
2022/11/24 06:40:17;;;;;;;0.40;0.40;;;;;;;;;;4141548;28;20500;-42
2022/11/24 06:42:20;;;;;;;0.30;0.30;;;;;;;;;;4144206;28;20124;-45
2022/11/24 06:44:22;;;;;;;0.60;0.40;;;;;;;;;;4132359;28;20757;-41
2022/11/24 06:46:23;;;;;;;0.55;0.32;;;;;;;;;;4149075;28;20096;-43
2022/11/24 06:48:25;;;;;;;0.73;0.40;;;;;;;;;;4141438;28;20472;-42
2022/11/24 06:50:27;;;;;;;0.40;0.40;;;;;;;;;;4149326;28;20115;-41
2022/11/24 06:52:28;;;;;;;0.70;0.50;;;;;;;;;;4128640;28;20053;-41
2022/11/24 06:54:30;;;;;;;0.50;0.50;;;;;;;;;;4162859;28;20049;-43
2022/11/24 06:56:32;;;;;;;0.38;0.38;;;;;;;;;;4145634;28;20096;-42
2022/11/24 06:58:33;;;;;;;0.40;0.40;;;;;;;;;;4139749;28;20053;-43
2022/11/24 07:00:35;;;;;;;0.45;0.40;;;;;;;;;;4136842;28;20054;-42
2022/11/24 07:02:37;;;;;;;0.57;0.57;;;;;;;;;;4114359;28;20063;-42
2022/11/24 07:04:39;;;;;;;0.82;0.43;;;;;;;;;;4121350;28;20424;-43
2022/11/24 07:06:40;;;;;;;0.75;0.57;;;;;;;;;;4138033;28;20049;-44
2022/11/24 07:08:42;;;;;;;0.50;0.50;;;;;;;;;;4137022;28;20053;-41
2022/11/24 07:10:44;;;;;;;0.90;0.40;;;;;;;;;;4132916;28;20066;-43
2022/11/24 07:12:45;;;;;;;0.65;0.52;;;;;;;;;;4132778;28;20112;-42
2022/11/24 07:14:48;;;;;;;0.43;0.43;;;;;;;;;;4112458;28;20495;-45
2022/11/24 07:16:50;;;;;;;0.50;0.50;;;;;;;;;;4133338;28;20452;-43
2022/11/24 07:18:52;;;;;;;1.42;0.50;;;;;;;;;;4139835;28;20057;-43
2022/11/24 07:20:53;;;;;;;0.80;0.50;;;;;;;;;;4136169;28;20092;-42
2022/11/24 07:22:56;;;;;;;0.73;0.50;;;;;;;;;;4137193;28;20064;-40
2022/11/24 07:24:57;;;;;;;1.88;0.63;;;;;;;;;;4149544;28;20053;-42
2022/11/24 07:26:58;;;;;;;0.60;0.50;;;;;;;;;;4135558;28;20130;-42
2022/11/24 07:28:59;;;;;;;0.85;0.70;;;;;;;;;;4127565;28;20076;-42
2022/11/24 07:31:09;;;;;;;0.68;0.50;;;;;;;;;;4140232;28;20104;-41
2022/11/24 07:33:10;;;;;;;0.40;0.40;;;;;;;;;;4107339;28;20058;-43
2022/11/24 07:35:12;;;;;;;0.50;0.40;;;;;;;;;;4131691;28;20066;-44
2022/11/24 07:37:13;;;;;;;3.92;0.60;;;;;;;;;;4137042;28;20127;-44
2022/11/24 07:39:15;;;;;;;0.50;0.50;;;;;;;;;;4145808;28;20061;-44
2022/11/24 07:41:18;;;;;;;1.05;0.60;;;;;;;;;;4122963;28;20112;-43
2022/11/24 07:43:19;;;;;;;2.38;0.40;;;;;;;;;;4126915;28;20058;-41
2022/11/24 07:45:21;;;;;;;0.70;0.60;;;;;;;;;;4108378;28;20575;-43
2022/11/24 07:47:23;;;;;;;0.63;0.40;;;;;;;;;;4130904;28;20141;-41
2022/11/24 07:49:24;;;;;;;1.20;0.50;;;;;;;;;;4132137;28;20112;-41
2022/11/24 07:51:25;;;;;;;0.93;0.32;;;;;;;;;;4120790;28;20058;-41
2022/11/24 07:53:27;;;;;;;0.52;0.32;;;;;;;;;;4125804;28;20062;-41
2022/11/24 07:55:29;;;;;;;2.38;0.60;;;;;;;;;;4131148;28;20057;-42
2022/11/24 07:57:30;;;;;;;0.50;0.40;;;;;;;;;;4130528;28;20066;-40
2022/11/24 07:59:31;;;;;;;0.40;0.40;;;;;;;;;;4132792;28;20445;-43
2022/11/24 08:01:32;;;;;;;3.72;0.80;;;;;;;;;;4133164;28;20058;-41
2022/11/24 08:03:34;;;;;;;2.28;0.50;;;;;;;;;;4142226;28;20691;-42
2022/11/24 08:05:35;;;;;;;0.50;0.40;;;;;;;;;;4123333;28;20373;-40
2022/11/24 08:07:37;;;;;;;0.70;0.50;;;;;;;;;;4135198;28;20100;-41
2022/11/24 08:09:38;;;;;;;0.30;0.30;;;;;;;;;;4093428;28;21529;-42
2022/11/24 08:11:39;;;;;;;0.40;0.32;;;;;;;;;;4117785;28;20113;-42
2022/11/24 08:13:41;;;;;;;2.58;0.50;;;;;;;;;;4118117;28;20493;-45
2022/11/24 08:15:42;;;;;;;2.33;0.63;;;;;;;;;;4111044;28;20106;-42
2022/11/24 08:17:44;;;;;;;0.85;0.50;;;;;;;;;;4129605;28;20486;-41
2022/11/24 08:19:45;;;;;;;0.60;0.50;;;;;;;;;;4124522;28;20120;-41
2022/11/24 08:21:47;;;;;;;0.60;0.57;;;;;;;;;;4129495;28;20058;-43
2022/11/24 08:23:48;;;;;;;0.68;0.40;;;;;;;;;;4127599;28;20053;-42
2022/11/24 08:25:49;;;;;;;0.60;0.40;;;;;;;;;;4130842;28;20374;-43
2022/11/24 08:27:51;;;;;;;2.90;0.50;;;;;;;;;;4129580;28;20603;-40
2022/11/24 08:29:53;;;;;;;0.77;0.50;;;;;;;;;;4133689;28;20089;-41
2022/11/24 08:31:57;;;;;;;1.50;0.40;;;;;;;;;;4127314;28;20054;-44
2022/11/24 08:33:59;;;;;;;1.13;0.40;;;;;;;;;;4133925;28;20096;-41
2022/11/24 08:36:03;;;;;;;0.40;0.40;;;;;;;;;;4124119;28;20065;-40
2022/11/24 08:38:05;;;;;;;1.05;0.40;;;;;;;;;;4129881;28;20062;-45
2022/11/24 08:40:07;;;;;;;1.10;0.73;;;;;;;;;;4135010;28;20577;-40
2022/11/24 08:42:08;;;;;;;0.80;0.60;;;;;;;;;;4121821;28;20554;-42
2022/11/24 08:44:10;;;;;;;0.93;0.47;;;;;;;;;;4137094;28;20060;-40
2022/11/24 08:46:15;;;;;;;0.77;0.60;;;;;;;;;;4115683;28;20070;-40
2022/11/24 08:48:17;;;;;;;1.70;0.57;;;;;;;;;;4124593;28;20088;-41
2022/11/24 08:50:18;;;;;;;2.15;0.50;;;;;;;;;;4129999;28;20200;-46
2022/11/24 08:52:20;;;;;;;0.82;0.55;;;;;;;;;;4112362;28;20053;-42
2022/11/24 08:54:21;;;;;;;0.38;0.38;;;;;;;;;;4127472;28;20046;-39
2022/11/24 08:56:24;;;;;;;1.17;0.40;;;;;;;;;;4112781;28;20394;-44
2022/11/24 08:58:27;;;;;;;2.20;0.50;;;;;;;;;;4109870;28;20136;-40
2022/11/24 09:00:29;;;;;;;0.65;0.60;;;;;;;;;;4126066;28;20123;-41
2022/11/24 09:02:30;;;;;;;2.17;0.63;;;;;;;;;;4124089;28;20581;-41
2022/11/24 09:04:31;;;;;;;0.45;0.45;;;;;;;;;;4125291;28;20049;-44
2022/11/24 09:06:33;;;;;;;0.77;0.52;;;;;;;;;;4139750;28;20357;-45
2022/11/24 09:08:35;;;;;;;0.88;0.50;;;;;;;;;;4125398;28;20053;-41
2022/11/24 09:10:36;;;;;;;1.08;0.55;;;;;;;;;;4151919;28;20061;-45
2022/11/24 09:12:38;;;;;;;1.02;0.50;;;;;;;;;;4116005;28;20392;-41
2022/11/24 09:14:39;;;;;;;1.55;0.55;;;;;;;;;;4116468;28;20073;-41
2022/11/24 09:16:41;;;;;;;0.50;0.50;;;;;;;;;;4127076;28;20060;-40
2022/11/24 09:18:42;;;;;;;1.45;0.80;;;;;;;;;;4128678;28;20088;-41
2022/11/24 09:20:44;;;;;;;0.50;0.40;;;;;;;;;;4116426;28;21055;-39
2022/11/24 09:22:46;;;;;;;0.80;0.50;;;;;;;;;;4133840;28;20420;-43
2022/11/24 09:24:47;;;;;;;0.50;0.50;;;;;;;;;;4121014;28;21427;-38
2022/11/24 09:26:48;;;;;;;0.60;0.50;;;;;;;;;;4128602;28;20054;-44
2022/11/24 09:28:53;;;;;;;3.13;0.52;;;;;;;;;;4130415;28;20104;-40
2022/11/24 09:30:54;;;;;;;2.95;0.50;;;;;;;;;;4127567;28;20167;-40
2022/11/24 09:32:56;;;;;;;0.68;0.45;;;;;;;;;;4132340;28;20057;-42
2022/11/24 09:34:57;;;;;;;0.75;0.60;;;;;;;;;;4105092;28;20535;-41
2022/11/24 09:36:58;;;;;;;0.85;0.60;;;;;;;;;;4118670;28;20120;-43
2022/11/24 09:38:59;;;;;;;0.50;0.45;;;;;;;;;;4127931;28;20058;-40
2022/11/24 09:41:16;;;;;;;0.80;0.80;;;;;;;;;;4110558;28;20055;-40
2022/11/24 09:43:35;;;;;;;2.65;0.70;;;;;;;;;;4122237;28;20058;-41
2022/11/24 09:45:52;;;;;;;0.77;0.50;;;;;;;;;;4118195;28;20061;-39
2022/11/24 09:48:17;;;;;;;3.60;1.15;;;;;;;;;;4113160;28;20077;-43
2022/11/24 09:50:21;;;;;;;0.40;0.40;;;;;;;;;;4118129;28;20121;-41
2022/11/24 09:52:48;;;;;;;0.80;0.55;;;;;;;;;;4121470;28;20050;-40
2022/11/24 09:54:54;;;;;;;0.52;0.50;;;;;;;;;;4120149;28;20116;-42
2022/11/24 09:57:00;;;;;;;3.53;0.80;;;;;;;;;;4127552;28;20115;-42
2022/11/24 09:59:13;;;;;;;0.60;0.60;;;;;;;;;;4119955;28;20113;-37
2022/11/24 10:01:35;;;;;;;0.98;0.55;;;;;;;;;;4124838;28;20108;-41
2022/11/24 10:03:43;;;;;;;2.15;0.60;;;;;;;;;;4122860;28;20050;-39
2022/11/24 10:05:47;;;;;;;1.42;0.52;;;;;;;;;;4109073;28;20120;-39
2022/11/24 10:08:19;;;;;;;0.60;0.50;;;;;;;;;;4140282;28;20057;-40
2022/11/24 10:10:30;;;;;;;0.73;0.60;;;;;;;;;;4119069;28;20117;-41
2022/11/24 10:12:35;;;;;;;;;;;;;;;;;;4123307;28;20434;-39
2022/11/24 10:14:55;;;;;;;2.72;0.55;;;;;;;;;;4140489;28;21197;-41
2022/11/24 10:16:59;;;;;;;0.65;0.55;;;;;;;;;;4120372;28;20155;-39
2022/11/24 10:19:11;;;;;;;2.30;0.80;;;;;;;;;;4126425;28;20061;-39
2022/11/24 10:21:41;;;;;;;0.60;0.50;;;;;;;;;;4120762;28;20489;-43
2022/11/24 10:24:02;;;;;;;1.92;0.50;;;;;;;;;;4116598;28;20539;-38
2022/11/24 10:26:14;;;;;;;0.52;0.52;;;;;;;;;;4125659;28;20506;-41
2022/11/24 10:28:15;;;;;;;0.60;0.38;;;;;;;;;;4124592;28;20058;-38
2022/11/24 10:30:22;;;;;;;4.10;0.70;;;;;;;;;;4126541;28;20057;-39
2022/11/24 10:32:28;;;;;;;1.10;0.40;;;;;;;;;;4120483;28;20058;-44
2022/11/24 10:34:43;;;;;;;1.17;0.93;;;;;;;;;;4121746;28;20049;-42
2022/11/24 10:36:51;;;;;;;0.73;0.50;;;;;;;;;;4133692;28;20599;-40
2022/11/24 10:39:08;;;;;;;0.70;0.60;;;;;;;;;;4118763;28;20152;-40
2022/11/24 10:41:18;;;;;;;0.60;0.40;;;;;;;;;;4128768;28;20061;-38
2022/11/24 10:43:19;;;;;;;0.63;0.50;;;;;;;;;;4118729;28;20097;-43
2022/11/24 10:45:21;;;;;;;0.55;0.45;;;;;;;;;;4131146;28;20073;-38
2022/11/24 10:47:23;;;;;;;0.77;0.57;;;;;;;;;;4115408;28;20065;-41
2022/11/24 10:49:27;;;;;;;0.65;0.52;;;;;;;;;;4122631;28;20057;-38
2022/11/24 10:51:47;;;;;;;0.50;0.50;;;;;;;;;;4134665;28;20058;-39
2022/11/24 10:53:51;;;;;;;2.55;0.50;;;;;;;;;;4124412;28;20046;-37
2022/11/24 10:55:53;;;;;;;1.15;0.50;;;;;;;;;;4122420;28;20054;-38
2022/11/24 10:58:15;;;;;;;1.80;0.55;;;;;;;;;;4138273;28;20502;-38
2022/11/24 11:00:17;;;;;;;0.57;0.40;;;;;;;;;;4139861;28;20053;-37
2022/11/24 11:02:44;;;;;;;1.65;0.77;;;;;;;;;;4125900;28;20205;-40
2022/11/24 11:04:45;;;;;;;0.43;0.43;;;;;;;;;;4114308;28;20054;-37
2022/11/24 11:06:46;;;;;;;1.15;0.50;;;;;;;;;;4122295;28;21266;-41
2022/11/24 11:08:48;;;;;;;0.80;0.40;;;;;;;;;;4136987;28;20054;-41
2022/11/24 11:11:11;;;;;;;0.40;0.40;;;;;;;;;;4144284;28;20431;-38
2022/11/24 11:13:25;;;;;;;0.60;0.40;;;;;;;;;;4137862;28;20458;-38
2022/11/24 11:15:30;;;;;;;0.52;0.45;;;;;;;;;;4135402;28;20100;-39
2022/11/24 11:17:34;;;;;;;0.90;0.45;;;;;;;;;;4138720;28;20054;-37
2022/11/24 11:19:35;;;;;;;0.85;0.47;;;;;;;;;;4121816;28;20098;-37
2022/11/24 11:21:37;;;;;;;0.98;0.40;;;;;;;;;;4138529;28;20108;-39
2022/11/24 11:23:39;;;;;;;0.40;0.40;;;;;;;;;;4122755;28;20075;-39
2022/11/24 11:25:42;;;;;;;0.43;0.40;;;;;;;;;;4135380;28;20101;-39
2022/11/24 11:27:43;;;;;;;0.38;0.30;;;;;;;;;;4136293;28;20058;-40
2022/11/24 11:29:45;;;;;;;1.40;0.55;;;;;;;;;;4115488;28;20080;-38
2022/11/24 11:31:59;;;;;;;0.55;0.30;;;;;;;;;;4128889;28;20054;-39
2022/11/24 11:34:09;;;;;;;0.60;0.47;;;;;;;;;;4138221;28;20156;-39
2022/11/24 11:36:10;;;;;;;0.77;0.40;;;;;;;;;;4150849;28;20578;-38
2022/11/24 11:38:12;;;;;;;0.45;0.40;;;;;;;;;;4134572;28;20152;-38
2022/11/24 11:40:22;;;;;;;0.88;0.50;;;;;;;;;;4132428;28;20417;-36
2022/11/24 11:42:37;;;;;;;0.52;0.40;;;;;;;;;;4120997;28;20090;-37
2022/11/24 11:44:41;;;;;;;1.88;0.60;;;;;;;;;;4110801;28;20669;-36
2022/11/24 11:46:43;;;;;;;0.47;0.30;;;;;;;;;;4118195;28;20058;-40
2022/11/24 11:48:45;;;;;;;1.33;0.30;;;;;;;;;;4136928;28;20101;-38
2022/11/24 11:50:57;;;;;;;0.55;0.50;;;;;;;;;;4118991;28;20517;-38
2022/11/24 11:53:23;;;;;;;0.38;0.38;;;;;;;;;;4135251;28;20053;-38
2022/11/24 11:55:37;;;;;;;0.57;0.38;;;;;;;;;;4134322;28;20101;-36
2022/11/24 11:57:57;;;;;;;0.52;0.30;;;;;;;;;;4129043;28;20540;-40
2022/11/24 12:00:15;;;;;;;0.52;0.40;;;;;;;;;;4141370;28;20081;-42
2022/11/24 12:02:24;;;;;;;1.90;0.55;;;;;;;;;;4127474;28;20110;-40
2022/11/24 12:04:49;;;;;;;0.52;0.32;;;;;;;;;;4122026;28;20065;-39
2022/11/24 12:07:19;;;;;;;0.30;0.30;;;;;;;;;;4129853;28;20497;-40
2022/11/24 12:09:47;;;;;;;2.83;0.35;;;;;;;;;;4122202;28;20078;-41
2022/11/24 12:12:12;;;;;;;0.68;0.40;;;;;;;;;;4095043;28;20507;-38
2022/11/24 12:14:23;;;;;;;0.30;0.30;;;;;;;;;;4110473;28;20518;-40
2022/11/24 12:16:44;;;;;;;0.60;0.40;;;;;;;;;;4114127;28;20053;-44
2022/11/24 12:18:50;;;;;;;0.80;0.60;;;;;;;;;;4117369;28;20100;-42
2022/11/24 12:21:01;;;;;;;2.67;0.50;;;;;;;;;;4087082;28;21541;-40
2022/11/24 12:23:28;;;;;;;0.45;0.38;;;;;;;;;;4113956;28;20112;-42
2022/11/24 12:25:38;;;;;;;0.63;0.40;;;;;;;;;;4111893;28;20120;-41